Time;durP1;ratioP1;P1;durP2;ratioP2;P2;SDS_P1;SDS_P2;PMS_P1;PMS_P2;Temp;Humidity;BMP_temperature;BMP_pressure;BME280_temperature;BME280_humidity;BME280_pressure;Samples;Min_cycle;Max_cycle;Signal;HPM_P1;HPM_P2
2022/12/28 00:02:15;;;;;;;7.32;3.55;;;;;;;14.78;55.21;101499.78;5074539;28;20049;-74
2022/12/28 00:04:43;;;;;;;7.57;3.63;;;;;;;14.74;55.31;101498.22;5074459;28;20041;-74
2022/12/28 00:07:12;;;;;;;6.68;3.70;;;;;;;14.73;55.25;101495.63;5073184;28;20102;-74
2022/12/28 00:09:40;;;;;;;8.82;3.50;;;;;;;14.72;54.99;101496.59;5074518;28;20405;-74
2022/12/28 00:12:08;;;;;;;7.90;3.63;;;;;;;14.69;55.26;101492.28;5074406;28;20051;-74
2022/12/28 00:14:36;;;;;;;6.72;3.38;;;;;;;14.66;55.31;101495.09;5074468;28;20044;-74
2022/12/28 00:17:04;;;;;;;7.72;3.67;;;;;;;14.64;55.26;101502.41;5073910;28;20654;-74
2022/12/28 00:19:34;;;;;;;8.50;3.80;;;;;;;14.61;55.28;101486.47;5074204;28;20129;-73
2022/12/28 00:22:02;;;;;;;7.60;3.80;;;;;;;14.60;55.35;101501.72;5074172;28;20049;-74
2022/12/28 00:24:30;;;;;;;7.10;3.70;;;;;;;14.55;55.46;101490.34;5074159;28;20481;-74
2022/12/28 00:26:58;;;;;;;8.13;3.97;;;;;;;14.53;55.29;101494.09;5074131;28;20715;-74
2022/12/28 00:29:26;;;;;;;8.18;4.03;;;;;;;14.52;55.42;101487.00;5073955;28;20506;-72
2022/12/28 00:31:54;;;;;;;7.97;4.10;;;;;;;14.50;55.45;101494.28;5072666;28;20093;-73
2022/12/28 00:34:23;;;;;;;6.53;3.60;;;;;;;14.47;55.53;101499.78;5073907;28;20049;-73
2022/12/28 00:36:53;;;;;;;8.57;3.95;;;;;;;14.42;55.54;101505.41;5072558;28;20099;-73
2022/12/28 00:39:40;;;;;;;6.97;4.10;;;;;;;14.42;55.50;101501.84;5073810;28;20489;-74
2022/12/28 00:42:09;;;;;;;6.88;3.55;;;;;;;14.39;55.60;101507.41;5073747;28;20497;-74
2022/12/28 00:44:37;;;;;;;6.90;3.97;;;;;;;14.35;55.57;101512.06;5073689;28;20102;-73
2022/12/28 00:47:06;;;;;;;5.78;3.47;;;;;;;14.37;55.57;101503.91;5073730;28;20114;-73
2022/12/28 00:49:34;;;;;;;8.00;4.30;;;;;;;14.33;55.59;101503.25;5073585;28;20077;-74
2022/12/28 00:52:04;;;;;;;7.38;3.45;;;;;;;14.30;55.40;101506.97;5072426;28;20139;-72
2022/12/28 00:54:32;;;;;;;8.52;4.28;;;;;;;14.29;55.60;101513.28;5073547;28;20052;-74
2022/12/28 00:57:00;;;;;;;7.72;3.70;;;;;;;14.25;55.75;101514.41;5072212;28;20045;-74
2022/12/28 00:59:28;;;;;;;5.53;3.28;;;;;;;14.23;55.45;101519.00;5073437;28;20052;-73
2022/12/28 01:01:56;;;;;;;6.05;3.55;;;;;;;14.22;55.48;101519.06;5073447;28;20120;-74
2022/12/28 01:04:25;;;;;;;7.60;3.92;;;;;;;14.20;55.71;101535.28;5073665;28;20045;-74
2022/12/28 01:06:53;;;;;;;6.40;3.85;;;;;;;14.19;55.64;101521.94;5073361;28;20124;-74
2022/12/28 01:09:23;;;;;;;9.95;4.28;;;;;;;14.16;55.67;101522.94;5073197;28;20045;-74
2022/12/28 01:11:51;;;;;;;6.88;3.65;;;;;;;14.13;55.66;101520.44;5073196;28;20056;-74
2022/12/28 01:14:19;;;;;;;7.75;3.72;;;;;;;14.12;55.65;101526.78;5073139;28;20106;-74
2022/12/28 01:16:47;;;;;;;7.28;4.25;;;;;;;14.10;55.70;101525.13;5071843;28;20048;-74
2022/12/28 01:19:20;;;;;;;7.20;4.05;;;;;;;14.09;55.50;101532.31;5073141;28;20040;-74
2022/12/28 01:21:49;;;;;;;8.50;4.13;;;;;;;14.06;55.53;101532.47;5073129;28;20452;-74
2022/12/28 01:24:17;;;;;;;6.13;3.67;;;;;;;14.03;55.44;101533.50;5072861;28;20036;-74
2022/12/28 01:26:47;;;;;;;7.82;4.10;;;;;;;14.02;55.63;101530.91;5072974;28;20055;-74
2022/12/28 01:29:15;;;;;;;7.53;4.07;;;;;;;13.99;55.65;101531.94;5072061;28;20120;-74
2022/12/28 01:31:43;;;;;;;6.65;4.10;;;;;;;13.96;55.63;101531.22;5072653;28;20043;-73
2022/12/28 01:34:11;;;;;;;8.40;4.32;;;;;;;13.95;55.84;101524.13;5072727;28;20446;-75
2022/12/28 01:36:39;;;;;;;7.15;3.60;;;;;;;13.90;55.68;101519.03;5072698;28;20093;-74
2022/12/28 01:39:07;;;;;;;7.93;4.20;;;;;;;13.91;55.68;101517.22;5072677;28;20562;-74
2022/12/28 01:41:38;;;;;;;7.32;4.20;;;;;;;13.90;55.53;101516.34;5072724;28;20106;-73
2022/12/28 01:44:38;;;;;;;6.00;3.95;;;;;;;13.87;55.68;101516.50;5072561;28;20071;-73
2022/12/28 01:47:10;;;;;;;8.45;4.35;;;;;;;13.85;55.72;101512.16;5072505;28;20079;-74
2022/12/28 01:49:43;;;;;;;9.07;4.00;;;;;;;13.83;55.89;101514.06;5072630;28;20044;-75
2022/12/28 01:52:15;;;;;;;9.32;4.28;;;;;;;13.79;55.83;101507.97;5072505;28;20068;-74
2022/12/28 01:54:47;;;;;;;8.07;3.90;;;;;;;13.79;55.60;101504.44;5072440;28;20481;-73
2022/12/28 01:57:17;;;;;;;7.87;4.53;;;;;;;13.72;55.65;101496.75;5072421;28;20473;-74
2022/12/28 01:59:51;;;;;;;7.35;4.18;;;;;;;13.75;55.71;101495.69;5072262;28;20044;-74
2022/12/28 02:02:21;;;;;;;6.80;3.97;;;;;;;13.72;55.77;101502.09;5072233;28;20036;-74
2022/12/28 02:04:49;;;;;;;7.43;4.07;;;;;;;13.70;55.79;101495.97;5072186;28;20044;-75
2022/12/28 02:07:25;;;;;;;8.23;4.25;;;;;;;13.68;55.66;101495.16;5072189;28;20048;-73
2022/12/28 02:09:53;;;;;;;7.78;4.45;;;;;;;13.68;55.66;101495.16;5072094;28;20464;-73
2022/12/28 02:12:42;;;;;;;6.15;3.88;;;;;;;13.66;55.80;101498.88;5072215;28;20123;-72
2022/12/28 02:15:12;;;;;;;7.45;4.13;;;;;;;13.64;55.71;101509.69;5071992;28;20379;-72
2022/12/28 02:17:48;;;;;;;6.90;4.20;;;;;;;13.62;55.80;101511.59;5072054;28;20068;-73
2022/12/28 02:20:16;;;;;;;7.53;3.97;;;;;;;13.60;55.92;101524.19;5072021;28;20507;-73
2022/12/28 02:23:15;;;;;;;7.95;4.10;;;;;;;13.59;56.05;101522.44;5071975;28;20041;-73
2022/12/28 02:26:15;;;;;;;8.63;4.45;;;;;;;13.56;55.90;101521.75;5072041;28;20040;-74
2022/12/28 02:29:22;;;;;;;8.32;4.65;;;;;;;13.53;56.21;101522.78;5071974;28;20044;-72
2022/12/28 02:31:58;;;;;;;9.77;4.95;;;;;;;13.51;55.92;101522.00;5071784;28;20044;-72
2022/12/28 02:34:30;;;;;;;8.07;4.55;;;;;;;13.50;55.93;101517.56;5071808;28;20045;-72
2022/12/28 02:37:03;;;;;;;6.88;4.70;;;;;;;13.49;55.80;101515.84;5071796;28;20047;-73
2022/12/28 02:39:34;;;;;;;;;;;;;;;13.46;55.78;101516.88;5072188;28;20044;-72
2022/12/28 02:42:04;;;;;;;8.60;4.88;;;;;;;13.44;55.81;101520.59;5071682;28;19921;-73
2022/12/28 02:50:08;;;;;;;8.18;5.07;;;;;;;13.39;55.61;101517.28;5071774;28;20509;-73
2022/12/28 02:52:57;;;;;;;9.77;5.45;;;;;;;13.37;55.81;101511.13;5071589;28;20118;-73
2022/12/28 02:58:51;;;;;;;8.80;5.30;;;;;;;13.32;55.92;101510.50;5071676;28;20086;-73
2022/12/28 03:01:36;;;;;;;9.95;5.38;;;;;;;13.31;55.71;101511.44;5071584;28;20044;-73
2022/12/28 03:04:12;;;;;;;9.80;5.10;;;;;;;13.30;55.74;101512.38;5071605;28;20045;-73
2022/12/28 03:09:41;;;;;;;9.20;5.55;;;;;;;13.26;55.78;101514.38;5071566;28;20083;-72
2022/12/28 03:12:18;;;;;;;8.20;5.13;;;;;;;13.24;55.66;101510.03;5070133;28;20048;-73
2022/12/28 03:14:49;;;;;;;9.48;5.40;;;;;;;13.24;55.64;101504.69;5071343;28;20101;-73
2022/12/28 03:31:25;;;;;;;10.35;6.15;;;;;;;13.11;55.62;101478.47;5071156;28;20536;-73
2022/12/28 03:34:05;;;;;;;10.02;5.43;;;;;;;13.10;55.59;101476.72;5071319;28;20079;-72
2022/12/28 03:36:42;;;;;;;8.13;5.40;;;;;;;13.09;55.50;101480.34;5071161;28;20044;-72
2022/12/28 03:39:18;;;;;;;8.75;5.43;;;;;;;13.09;55.57;101485.72;5071229;28;20252;-72
2022/12/28 03:44:35;;;;;;;9.18;5.85;;;;;;;13.04;55.60;101477.06;5028958;28;20068;-71
2022/12/28 03:47:10;;;;;;;8.68;5.47;;;;;;;13.03;55.63;101477.16;5071205;28;20064;-72
2022/12/28 03:49:41;;;;;;;8.10;5.35;;;;;;;13.02;55.62;101470.91;5071309;28;20495;-73
2022/12/28 03:52:11;;;;;;;11.23;5.82;;;;;;;12.99;55.68;101464.84;5070994;28;20123;-72
2022/12/28 03:54:40;;;;;;;10.35;6.07;;;;;;;12.98;55.81;101466.66;5073411;28;20102;-72
2022/12/28 03:57:08;;;;;;;9.88;5.85;;;;;;;12.96;55.83;101467.69;5074723;28;20489;-73
2022/12/28 03:59:36;;;;;;;9.57;5.82;;;;;;;12.94;55.82;101464.22;5073314;28;20131;-72
2022/12/28 04:02:04;;;;;;;9.25;5.45;;;;;;;12.92;55.83;101469.63;5074651;28;20437;-73
2022/12/28 04:04:34;;;;;;;9.55;6.10;;;;;;;12.91;55.84;101462.53;5074505;28;20045;-73
2022/12/28 04:07:03;;;;;;;8.30;5.68;;;;;;;12.90;55.77;101458.13;5074424;28;20048;-73
2022/12/28 04:09:32;;;;;;;10.73;5.78;;;;;;;12.90;55.56;101452.78;5074456;28;20388;-73
2022/12/28 04:12:01;;;;;;;8.60;5.65;;;;;;;12.88;55.47;101443.97;5074326;28;20080;-73
2022/12/28 04:14:29;;;;;;;10.02;5.93;;;;;;;12.87;55.44;101448.47;5074398;28;20446;-73
2022/12/28 04:16:57;;;;;;;9.93;6.07;;;;;;;12.86;55.63;101452.09;5074213;28;20041;-73
2022/12/28 04:19:25;;;;;;;9.68;5.65;;;;;;;12.85;55.46;101444.13;5074328;28;20123;-73
2022/12/28 04:21:53;;;;;;;9.02;5.78;;;;;;;12.82;55.72;101437.09;5074110;28;20040;-73
2022/12/28 04:24:23;;;;;;;9.18;5.90;;;;;;;12.82;55.54;101438.91;5074142;28;20050;-73
2022/12/28 04:26:51;;;;;;;9.90;5.93;;;;;;;12.80;55.39;101436.31;5074179;28;20048;-72
2022/12/28 04:29:19;;;;;;;8.07;5.43;;;;;;;12.80;55.14;101430.09;5074154;28;20714;-73
2022/12/28 04:31:48;;;;;;;9.23;5.97;;;;;;;12.79;55.41;101431.03;5073940;28;20499;-73
2022/12/28 04:34:16;;;;;;;10.70;5.75;;;;;;;12.79;55.25;101434.59;5073918;28;20555;-74
2022/12/28 04:36:45;;;;;;;8.73;5.53;;;;;;;12.78;55.12;101432.00;5074079;28;20106;-73
2022/12/28 04:39:14;;;;;;;9.45;5.88;;;;;;;12.77;55.06;101430.25;5073904;28;20048;-73
2022/12/28 04:41:44;;;;;;;9.48;5.88;;;;;;;12.79;55.47;101426.56;5074044;28;20068;-73
2022/12/28 04:44:12;;;;;;;8.18;5.43;;;;;;;12.86;56.69;101430.66;5073858;28;20116;-73
2022/12/28 04:46:41;;;;;;;9.35;5.68;;;;;;;12.96;57.03;101439.09;5073587;28;20053;-73
2022/12/28 04:49:09;;;;;;;10.50;5.78;;;;;;;13.05;57.00;101430.59;5073797;28;20051;-73
2022/12/28 04:51:37;;;;;;;9.00;4.95;;;;;;;13.14;57.08;101432.78;5073617;28;20040;-73
2022/12/28 04:54:05;;;;;;;9.77;5.88;;;;;;;13.25;56.82;101439.44;5073622;28;20044;-73
2022/12/28 04:56:33;;;;;;;8.43;5.47;;;;;;;13.36;56.78;101445.09;5073570;28;20040;-73
2022/12/28 04:59:03;;;;;;;10.00;5.80;;;;;;;13.45;56.50;101439.22;5073478;28;20127;-71
2022/12/28 05:01:31;;;;;;;7.95;5.10;;;;;;;13.57;56.37;101441.25;5073350;28;20044;-72
2022/12/28 05:04:00;;;;;;;9.23;5.72;;;;;;;13.66;56.27;101446.13;5073486;28;20498;-72
2022/12/28 05:06:28;;;;;;;9.77;5.85;;;;;;;13.80;56.16;101447.16;5073292;28;20044;-72
2022/12/28 05:08:56;;;;;;;9.73;5.78;;;;;;;13.87;56.01;101444.06;5073358;28;20041;-73
2022/12/28 05:11:26;;;;;;;7.22;5.32;;;;;;;13.97;55.86;101447.13;5073320;28;20044;-73
2022/12/28 05:13:54;;;;;;;8.10;5.57;;;;;;;14.04;55.91;101460.09;5073071;28;20125;-73
2022/12/28 05:16:26;;;;;;;8.85;5.50;;;;;;;14.13;55.84;101450.69;5073180;28;20486;-72
2022/12/28 05:18:56;;;;;;;8.52;5.15;;;;;;;14.20;55.67;101443.16;5071755;28;20041;-72
2022/12/28 05:21:26;;;;;;;8.32;5.35;;;;;;;14.25;55.69;101444.63;5073144;28;20409;-73
2022/12/28 05:23:54;;;;;;;9.20;5.20;;;;;;;14.39;55.36;101448.34;5073018;28;20049;-71
2022/12/28 05:26:25;;;;;;;8.88;5.22;;;;;;;14.49;55.22;101438.84;5072801;28;20485;-72
2022/12/28 05:28:53;;;;;;;9.10;5.50;;;;;;;14.60;55.23;101441.78;5072897;28;20048;-73
2022/12/28 05:31:22;;;;;;;9.25;5.50;;;;;;;14.68;54.96;101436.84;5072800;28;20055;-73
2022/12/28 05:33:52;;;;;;;8.25;5.22;;;;;;;14.74;54.88;101432.91;5072748;28;20090;-73
2022/12/28 05:36:23;;;;;;;8.10;5.00;;;;;;;14.85;54.84;101441.19;5072698;28;20102;-71
2022/12/28 05:38:53;;;;;;;9.48;5.30;;;;;;;14.89;54.76;101446.31;5072698;28;20051;-72
2022/12/28 05:41:23;;;;;;;8.82;5.53;;;;;;;14.94;54.62;101439.78;5072583;28;20040;-74
2022/12/28 05:43:51;;;;;;;8.07;5.57;;;;;;;14.95;54.69;101436.13;5072541;28;20458;-72
2022/12/28 05:46:22;;;;;;;8.88;5.43;;;;;;;14.96;54.59;101432.50;5071024;28;20053;-71
2022/12/28 05:48:54;;;;;;;7.95;5.15;;;;;;;14.97;54.68;101431.56;5072574;28;20040;-73
2022/12/28 05:51:24;;;;;;;8.60;5.22;;;;;;;15.01;54.54;101433.09;5072404;28;20397;-71
2022/12/28 05:53:52;;;;;;;9.77;5.25;;;;;;;15.00;54.56;101431.38;5072320;28;20048;-71
2022/12/28 05:56:22;;;;;;;8.88;5.20;;;;;;;15.03;54.54;101436.53;5072311;28;20040;-72
2022/12/28 05:58:53;;;;;;;8.85;5.43;;;;;;;15.06;54.51;101439.94;5072420;28;20102;-73
2022/12/28 06:01:24;;;;;;;9.52;5.47;;;;;;;15.13;54.51;101448.47;5072273;28;20047;-74
2022/12/28 06:03:55;;;;;;;8.40;5.38;;;;;;;15.17;54.47;101452.72;5072206;28;20041;-72
2022/12/28 06:06:24;;;;;;;8.52;5.25;;;;;;;15.20;54.39;101452.53;5072199;28;20151;-73
2022/12/28 06:08:52;;;;;;;9.02;5.10;;;;;;;15.22;54.57;101453.28;5072173;28;20048;-73
2022/12/28 06:11:22;;;;;;;9.05;5.22;;;;;;;15.21;54.17;101451.56;5072110;28;20408;-72
2022/12/28 06:13:51;;;;;;;8.68;5.05;;;;;;;15.18;54.21;101449.06;5071942;28;20040;-71
2022/12/28 06:16:22;;;;;;;8.40;5.07;;;;;;;15.15;54.26;101454.59;5071381;28;20048;-73
2022/12/28 06:18:51;;;;;;;8.68;5.50;;;;;;;15.11;54.27;101447.69;5071851;28;20105;-72
2022/12/28 06:21:25;;;;;;;7.57;4.90;;;;;;;15.08;54.40;101456.81;5071889;28;20051;-73
2022/12/28 06:23:56;;;;;;;8.07;5.22;;;;;;;15.03;54.34;101455.34;5071810;28;20124;-74
2022/12/28 06:26:25;;;;;;;9.90;5.53;;;;;;;14.98;54.58;101458.31;5071973;28;20067;-72
2022/12/28 06:28:53;;;;;;;9.43;5.18;;;;;;;14.94;54.56;101456.75;5071892;28;20048;-73
2022/12/28 06:31:23;;;;;;;7.85;5.15;;;;;;;14.88;54.74;101458.00;5071753;28;20503;-72
2022/12/28 06:33:53;;;;;;;7.72;4.50;;;;;;;14.84;54.60;101459.13;5070427;28;20063;-71
2022/12/28 06:36:25;;;;;;;8.23;5.15;;;;;;;14.80;54.71;101459.41;5071759;28;20056;-71
2022/12/28 06:38:55;;;;;;;9.80;5.47;;;;;;;14.74;54.82;101457.94;5071848;28;20086;-71
2022/12/28 06:41:24;;;;;;;8.60;5.07;;;;;;;14.69;55.02;101468.09;5071646;28;20489;-72
2022/12/28 06:43:54;;;;;;;8.38;5.20;;;;;;;14.65;55.00;101466.53;5071647;28;20048;-71
2022/12/28 06:46:23;;;;;;;8.50;5.50;;;;;;;14.59;54.67;101461.53;5071553;28;20552;-71
2022/12/28 06:48:52;;;;;;;8.38;5.30;;;;;;;14.54;54.74;101461.78;5071780;28;20149;-72
2022/12/28 06:51:22;;;;;;;8.85;5.40;;;;;;;14.49;54.51;101455.81;5071688;28;20041;-71
2022/12/28 06:53:53;;;;;;;9.02;5.32;;;;;;;14.43;54.38;101450.75;5071471;28;20102;-71
2022/12/28 06:56:23;;;;;;;9.48;4.90;;;;;;;14.39;54.19;101456.41;5071558;28;20449;-71
2022/12/28 06:58:52;;;;;;;8.57;5.50;;;;;;;14.35;54.04;101458.38;5071769;28;20130;-72
2022/12/28 07:01:31;;;;;;;7.57;5.18;;;;;;;14.29;53.92;101464.97;5071302;28;20044;-72
2022/12/28 07:04:01;;;;;;;7.20;5.00;;;;;;;14.25;53.79;101466.09;5071500;28;20474;-73
2022/12/28 07:06:30;;;;;;;8.38;5.75;;;;;;;14.22;53.78;101473.47;5071379;28;20041;-71
2022/12/28 07:09:01;;;;;;;9.00;5.43;;;;;;;14.17;53.70;101473.69;5071430;28;20041;-73
2022/12/28 07:11:30;;;;;;;7.70;5.15;;;;;;;14.13;53.62;101469.47;5070162;28;20052;-71
2022/12/28 07:13:58;;;;;;;10.07;5.20;;;;;;;14.09;53.70;101467.91;5071411;28;20095;-71
2022/12/28 07:16:28;;;;;;;7.88;4.88;;;;;;;14.05;53.66;101477.06;5071561;28;20048;-70
2022/12/28 07:18:55;;;;;;;10.23;5.57;;;;;;;14.03;53.42;101473.63;5071363;28;20048;-70
2022/12/28 07:21:26;;;;;;;8.57;5.07;;;;;;;13.96;53.92;101461.47;5071230;28;20102;-70
2022/12/28 07:23:55;;;;;;;7.72;5.38;;;;;;;13.94;53.99;101466.06;5071171;28;20102;-70
2022/12/28 07:26:27;;;;;;;9.00;5.18;;;;;;;13.90;53.83;101464.53;5071205;28;20045;-72
2022/12/28 07:28:58;;;;;;;8.32;5.30;;;;;;;13.85;53.70;101463.88;5074044;28;20163;-72
2022/12/28 07:31:28;;;;;;;8.27;5.45;;;;;;;13.82;53.66;101464.06;5075086;28;20044;-71
2022/12/28 07:33:58;;;;;;;8.32;4.82;;;;;;;13.78;53.69;101457.97;5074831;28;20045;-71
2022/12/28 07:36:28;;;;;;;8.45;5.32;;;;;;;13.77;53.63;101458.06;5073590;28;20040;-71
2022/12/28 07:38:57;;;;;;;8.98;5.38;;;;;;;13.73;53.61;101460.94;5074954;28;20498;-71
2022/12/28 07:41:28;;;;;;;9.43;5.40;;;;;;;13.68;53.64;101452.25;5073621;28;20101;-71
2022/12/28 07:43:57;;;;;;;9.05;5.75;;;;;;;13.66;53.48;101454.16;5072748;28;20046;-71
2022/12/28 07:46:27;;;;;;;8.88;5.20;;;;;;;13.64;53.54;101465.94;5073033;28;20140;-71
2022/12/28 07:48:56;;;;;;;9.45;5.68;;;;;;;13.60;53.46;101472.38;5081607;28;20051;-71
2022/12/28 07:51:27;;;;;;;8.30;5.25;;;;;;;13.57;53.50;101475.22;5073041;28;20551;-71
2022/12/28 07:53:56;;;;;;;7.75;5.57;;;;;;;13.53;53.51;101469.19;5068205;28;20076;-72
2022/12/28 07:56:27;;;;;;;8.52;5.22;;;;;;;13.49;53.58;101467.59;5053672;28;20060;-71
2022/12/28 07:58:58;;;;;;;8.52;5.10;;;;;;;13.51;53.32;101479.13;5053083;28;20049;-72
2022/12/28 08:01:28;;;;;;;9.65;5.60;;;;;;;13.52;53.87;101478.19;5070359;28;20041;-71
2022/12/28 08:03:59;;;;;;;9.30;5.72;;;;;;;13.56;54.74;101479.72;5054495;28;20052;-71
2022/12/28 08:06:28;;;;;;;8.65;5.25;;;;;;;13.60;54.92;101475.94;5054515;28;20049;-71
2022/12/28 08:08:59;;;;;;;8.63;5.22;;;;;;;13.64;54.84;101477.50;5054515;28;20073;-72
2022/12/28 08:11:31;;;;;;;9.88;5.28;;;;;;;13.64;54.81;101477.50;5086422;28;20041;-71
2022/12/28 08:14:00;;;;;;;8.13;5.43;;;;;;;13.66;54.77;101475.59;5053914;28;20452;-72
2022/12/28 08:16:30;;;;;;;7.90;4.80;;;;;;;13.66;54.87;101464.88;5054225;28;20049;-72
2022/12/28 08:18:59;;;;;;;9.98;5.30;;;;;;;13.65;54.73;101465.84;5054075;28;20049;-72
2022/12/28 08:21:29;;;;;;;9.25;5.60;;;;;;;13.65;54.57;101468.53;5053931;28;20072;-73
2022/12/28 08:23:58;;;;;;;9.30;5.55;;;;;;;13.63;54.29;101465.06;5054022;28;20040;-72
2022/12/28 08:26:30;;;;;;;9.52;5.55;;;;;;;13.62;54.30;101468.69;5053914;28;20044;-72
2022/12/28 08:29:00;;;;;;;9.38;5.55;;;;;;;13.59;54.10;101466.16;5053944;28;20055;-72
2022/12/28 08:31:30;;;;;;;8.63;5.82;;;;;;;13.58;53.69;101469.78;5053904;28;20057;-73
2022/12/28 08:34:00;;;;;;;8.60;5.70;;;;;;;13.55;53.69;101464.59;5053867;28;20055;-72
2022/12/28 08:36:29;;;;;;;8.70;5.80;;;;;;;13.56;53.56;101468.16;5053727;28;20045;-71
2022/12/28 08:38:58;;;;;;;8.05;5.18;;;;;;;13.53;53.58;101469.19;5053254;28;20049;-70
2022/12/28 08:41:29;;;;;;;9.00;5.70;;;;;;;13.50;53.34;101463.97;5053578;28;20060;-70
2022/12/28 08:43:58;;;;;;;9.93;6.30;;;;;;;13.49;53.06;101467.59;5053758;28;20120;-70
2022/12/28 08:46:29;;;;;;;9.70;5.90;;;;;;;13.48;53.03;101465.88;5085730;28;20128;-71
2022/12/28 08:48:58;;;;;;;9.38;5.70;;;;;;;13.45;53.16;101469.59;5053703;28;20041;-70
2022/12/28 08:51:30;;;;;;;12.57;6.18;;;;;;;13.43;53.09;101462.56;5074461;28;20049;-70
2022/12/28 08:53:59;;;;;;;9.43;5.75;;;;;;;13.42;53.07;101463.53;5073519;28;20409;-72
2022/12/28 08:56:30;;;;;;;8.32;5.30;;;;;;;13.41;53.23;101467.13;5073295;28;20045;-71
2022/12/28 08:58:58;;;;;;;9.00;5.78;;;;;;;13.39;53.14;101461.00;5071707;28;20040;-70
2022/12/28 09:01:28;;;;;;;9.77;5.85;;;;;;;13.38;53.33;101460.13;5072861;28;20052;-73
2022/12/28 09:03:59;;;;;;;9.73;6.20;;;;;;;13.36;53.15;101462.03;5072295;28;20047;-71
2022/12/28 09:06:30;;;;;;;10.25;5.80;;;;;;;13.35;53.34;101471.00;5073362;28;20055;-71
2022/12/28 09:09:00;;;;;;;9.23;5.85;;;;;;;13.35;53.16;101464.78;5071392;28;20401;-72
2022/12/28 09:11:38;;;;;;;8.85;5.30;;;;;;;13.33;53.34;101454.16;5072607;28;20051;-72
2022/12/28 09:14:08;;;;;;;9.38;5.72;;;;;;;13.32;53.33;101448.88;5073023;28;20526;-73
2022/12/28 09:16:37;;;;;;;11.40;6.45;;;;;;;13.33;53.32;101455.97;5073034;28;20508;-74
2022/12/28 09:19:09;;;;;;;9.70;6.25;;;;;;;13.32;53.42;101446.22;5073140;28;20120;-73
2022/12/28 09:21:38;;;;;;;9.38;5.95;;;;;;;13.31;53.30;101436.41;5071744;28;20068;-75
2022/12/28 09:24:07;;;;;;;11.55;5.88;;;;;;;13.31;53.38;101433.72;5072837;28;20044;-73
2022/12/28 09:26:38;;;;;;;10.05;6.05;;;;;;;13.30;53.42;101435.53;5072966;28;20044;-73
2022/12/28 09:29:08;;;;;;;9.30;5.43;;;;;;;13.31;53.60;101436.41;5072813;28;20083;-73
2022/12/28 09:31:37;;;;;;;8.70;5.57;;;;;;;13.29;53.69;101427.59;5072948;28;20045;-72
2022/12/28 09:34:06;;;;;;;10.52;5.82;;;;;;;13.29;53.52;101432.94;5072714;28;20094;-74
2022/12/28 09:36:54;;;;;;;9.80;5.78;;;;;;;13.29;53.54;101432.94;5072439;28;20443;-75
2022/12/28 09:39:23;;;;;;;9.90;5.65;;;;;;;13.29;53.51;101428.44;5072618;28;20048;-76
2022/12/28 09:41:57;;;;;;;14.10;5.78;;;;;;;13.30;54.41;101424.81;5072579;28;20048;-75
2022/12/28 09:44:35;;;;;;;;;;;;;;;13.31;54.42;101426.53;5072947;28;20102;-73
2022/12/28 09:47:16;;;;;;;9.38;6.10;;;;;;;13.30;54.27;101418.59;5072825;28;19943;-72
2022/12/28 09:49:49;;;;;;;8.35;5.70;;;;;;;13.27;54.10;101408.91;5072146;28;20048;-71
2022/12/28 09:52:24;;;;;;;;;;;;;;;13.30;53.90;101410.56;5072379;28;20041;-72
2022/12/28 09:54:53;;;;;;;9.15;5.68;;;;;;;13.30;53.95;101402.53;5070889;28;19920;-72
2022/12/28 09:57:24;;;;;;;12.30;5.15;;;;;;;13.30;53.46;101394.47;5072325;28;20123;-74
2022/12/28 09:59:53;;;;;;;6.93;4.72;;;;;;;13.31;53.48;101388.16;5072329;28;20456;-74
2022/12/28 10:02:27;;;;;;;9.57;6.03;;;;;;;13.32;53.56;101376.53;5072141;28;20048;-73
2022/12/28 10:04:55;;;;;;;9.95;5.93;;;;;;;13.32;53.57;101368.50;5072326;28;20079;-73
2022/12/28 10:07:23;;;;;;;9.05;5.53;;;;;;;13.32;53.76;101363.13;5072172;28;20110;-74
2022/12/28 10:09:52;;;;;;;8.77;5.50;;;;;;;13.34;53.66;101361.22;5072055;28;20477;-73
2022/12/28 10:12:24;;;;;;;9.60;5.70;;;;;;;13.36;53.79;101356.66;5070937;28;20068;-74
2022/12/28 10:14:53;;;;;;;9.80;5.90;;;;;;;13.38;53.93;101362.78;5071867;28;20048;-74
2022/12/28 10:17:27;;;;;;;8.63;4.95;;;;;;;13.38;53.90;101369.00;5071919;28;20044;-74
2022/12/28 10:19:57;;;;;;;8.82;5.38;;;;;;;13.42;54.06;101364.38;5071921;28;20103;-74
2022/12/28 10:22:34;;;;;;;9.23;5.40;;;;;;;13.43;54.17;101366.09;5072121;28;20041;-74
2022/12/28 10:25:02;;;;;;;8.57;5.32;;;;;;;13.45;54.21;101356.16;5072051;28;20366;-74
2022/12/28 10:27:32;;;;;;;8.00;5.18;;;;;;;13.48;54.11;101353.28;5072759;28;20044;-74
2022/12/28 10:30:15;;;;;;;8.18;5.18;;;;;;;13.51;54.22;101358.50;5071965;28;20045;-73
2022/12/28 10:32:50;;;;;;;8.30;5.38;;;;;;;13.55;54.11;101357.38;5072012;28;20089;-74
2022/12/28 10:35:26;;;;;;;8.07;5.00;;;;;;;13.62;54.40;101350.72;5071691;28;20040;-70
2022/12/28 10:38:02;;;;;;;8.00;5.00;;;;;;;13.75;54.16;101356.25;5071733;28;20041;-74
2022/12/28 10:40:34;;;;;;;7.88;4.82;;;;;;;13.85;54.27;101356.63;5071532;28;20044;-72
2022/12/28 10:43:03;;;;;;;8.73;5.22;;;;;;;13.98;54.16;101363.88;5070319;28;20045;-70
2022/12/28 10:45:40;;;;;;;8.88;4.82;;;;;;;14.09;53.84;101355.25;5070213;28;20053;-71
2022/12/28 10:48:14;;;;;;;8.38;5.07;;;;;;;14.22;53.64;101353.56;5071460;28;20044;-71
2022/12/28 10:50:47;;;;;;;7.55;4.90;;;;;;;14.34;53.54;101354.66;5070251;28;20048;-72
2022/12/28 10:53:18;;;;;;;8.48;5.15;;;;;;;14.45;53.23;101351.38;5070253;28;20053;-73
2022/12/28 10:55:46;;;;;;;7.20;4.45;;;;;;;14.54;53.28;101354.38;5071422;28;20041;-73
2022/12/28 10:58:20;;;;;;;7.95;4.57;;;;;;;14.66;53.22;101347.41;5071522;28;20425;-73
2022/12/28 11:01:00;;;;;;;7.30;4.38;;;;;;;14.76;52.99;101353.97;5071456;28;20044;-73
2022/12/28 11:03:31;;;;;;;8.45;4.57;;;;;;;14.86;52.96;101351.59;5075499;28;20121;-70
2022/12/28 11:06:15;;;;;;;7.47;4.55;;;;;;;14.99;52.74;101351.72;5075674;28;20041;-70
2022/12/28 11:09:01;;;;;;;6.75;4.43;;;;;;;15.07;52.60;101354.81;5075565;28;20044;-73
2022/12/28 11:11:30;;;;;;;9.45;4.50;;;;;;;15.15;52.50;101349.81;5075470;28;20058;-73
2022/12/28 11:14:03;;;;;;;7.15;4.40;;;;;;;15.17;52.40;101345.22;5075648;28;20098;-72
2022/12/28 11:16:36;;;;;;;7.07;3.90;;;;;;;15.23;52.28;101336.75;5075461;28;20055;-69
2022/12/28 11:19:04;;;;;;;6.87;4.27;;;;;;;15.22;52.25;101335.03;5075307;28;20049;-74
2022/12/28 11:21:34;;;;;;;7.50;4.32;;;;;;;15.22;52.22;101332.34;5073955;28;20051;-71
2022/12/28 11:24:04;;;;;;;6.63;3.92;;;;;;;15.21;52.20;101325.25;5075003;28;20437;-70
2022/12/28 11:26:33;;;;;;;6.60;4.25;;;;;;;15.20;52.11;101328.03;5075034;28;20044;-71
2022/12/28 11:29:03;;;;;;;7.25;4.40;;;;;;;15.17;52.20;101329.09;5075039;28;20482;-71
2022/12/28 11:31:34;;;;;;;8.82;4.57;;;;;;;15.14;52.20;101326.56;5075072;28;20045;-72
2022/12/28 11:34:06;;;;;;;6.57;4.05;;;;;;;15.11;52.26;101318.72;5074329;28;20041;-71
2022/12/28 11:36:40;;;;;;;6.47;4.15;;;;;;;15.09;52.18;101304.53;5071579;28;20050;-71
2022/12/28 11:39:31;;;;;;;6.25;4.05;;;;;;;15.06;52.33;101304.72;5073852;28;20463;-72
2022/12/28 11:42:00;;;;;;;6.55;4.05;;;;;;;15.02;52.06;101298.66;5070757;28;20040;-71
2022/12/28 11:44:52;;;;;;;6.45;3.92;;;;;;;14.99;52.23;101300.69;5072056;28;20056;-72
2022/12/28 11:47:35;;;;;;;6.00;3.83;;;;;;;14.97;52.18;101294.53;5074327;28;20037;-73
2022/12/28 11:50:41;;;;;;;6.35;4.00;;;;;;;14.98;52.17;101281.00;5071561;28;20405;-73
2022/12/28 11:53:23;;;;;;;7.05;4.22;;;;;;;14.99;52.35;101280.03;5074427;28;20040;-72
2022/12/28 11:56:02;;;;;;;7.18;4.28;;;;;;;14.99;52.44;101272.00;5072531;28;20047;-72
2022/12/28 11:59:16;;;;;;;7.47;4.38;;;;;;;15.03;52.41;101267.28;5072400;28;20094;-72
2022/12/28 12:01:47;;;;;;;7.00;3.95;;;;;;;15.06;52.57;101267.09;5071198;28;20406;-72
2022/12/28 12:04:41;;;;;;;6.20;3.90;;;;;;;15.07;52.57;101253.56;5074019;28;20072;-72
2022/12/28 12:07:27;;;;;;;;;;;;;;;15.10;52.51;101252.50;5072412;28;20489;-72
2022/12/28 12:10:32;;;;;;;6.63;3.97;;;;;;;15.10;52.70;101247.13;5073196;28;19973;-70
2022/12/28 12:13:22;;;;;;;6.85;4.32;;;;;;;15.11;52.39;101252.41;5079179;28;20053;-72
2022/12/28 12:15:54;;;;;;;6.45;4.38;;;;;;;15.11;52.54;101260.47;5074114;28;20052;-71
2022/12/28 12:18:26;;;;;;;6.57;4.35;;;;;;;15.10;52.40;101247.13;5083029;28;20043;-71